createdAt,value
2023-05-03T00:00:47.835Z,1029.53
2023-05-03T00:01:47.885Z,1029.51
2023-05-03T00:02:47.973Z,1029.54
2023-05-03T00:03:47.869Z,1029.53
2023-05-03T00:04:47.900Z,1029.53
2023-05-03T00:05:48.000Z,1029.51
2023-05-03T00:06:47.996Z,1029.51
2023-05-03T00:07:47.850Z,1029.51
2023-05-03T00:08:47.860Z,1029.53
2023-05-03T00:09:47.852Z,1029.53
2023-05-03T00:10:47.841Z,1029.53
2023-05-03T00:11:47.846Z,1029.48
2023-05-03T00:12:47.847Z,1029.48
2023-05-03T00:13:47.863Z,1029.47
2023-05-03T00:14:47.847Z,1029.48
2023-05-03T00:15:47.842Z,1029.46
2023-05-03T00:16:47.912Z,1029.46
2023-05-03T00:17:47.867Z,1029.42
2023-05-03T00:18:49.325Z,1029.4
2023-05-03T00:19:47.851Z,1029.46
2023-05-03T00:20:47.843Z,1029.47
2023-05-03T00:21:47.849Z,1029.46
2023-05-03T00:22:47.837Z,1029.46
2023-05-03T00:23:47.861Z,1029.52
2023-05-03T00:24:47.861Z,1029.46
2023-05-03T00:25:47.847Z,1029.47
2023-05-03T00:26:47.853Z,1029.51
2023-05-03T00:27:47.838Z,1029.47
2023-05-03T00:28:47.858Z,1029.46
2023-05-03T00:29:47.851Z,1029.46
2023-05-03T00:30:47.942Z,1029.5
2023-05-03T00:31:47.854Z,1029.51
2023-05-03T00:32:47.920Z,1029.54
2023-05-03T00:33:47.857Z,1029.49
2023-05-03T00:34:47.846Z,1029.54
2023-05-03T00:35:47.839Z,1029.55
2023-05-03T00:36:47.835Z,1029.53
2023-05-03T00:37:47.844Z,1029.54
2023-05-03T00:38:47.859Z,1029.54
2023-05-03T00:39:47.873Z,1029.53
2023-05-03T00:40:47.844Z,1029.55
2023-05-03T00:41:47.867Z,1029.58
2023-05-03T00:42:47.845Z,1029.58
2023-05-03T00:43:47.877Z,1029.55
2023-05-03T00:44:47.853Z,1029.53
2023-05-03T00:45:47.845Z,1029.56
2023-05-03T00:46:47.920Z,1029.53
2023-05-03T00:47:47.901Z,1029.56
2023-05-03T00:48:47.863Z,1029.55
2023-05-03T00:49:47.842Z,1029.56
2023-05-03T00:50:47.858Z,1029.57
2023-05-03T00:51:47.846Z,1029.54
2023-05-03T00:52:47.858Z,1029.56
2023-05-03T00:53:47.863Z,1029.55
2023-05-03T00:54:47.858Z,1029.58
2023-05-03T00:55:47.844Z,1029.56
2023-05-03T00:56:51.625Z,1029.56
2023-05-03T00:57:47.843Z,1029.54
2023-05-03T00:58:47.858Z,1029.56
2023-05-03T00:59:47.843Z,1029.53
2023-05-03T01:00:47.845Z,1029.56
2023-05-03T01:01:47.874Z,1029.57
2023-05-03T01:02:47.918Z,1029.54
2023-05-03T01:03:47.949Z,1029.54
2023-05-03T01:04:47.860Z,1029.55
2023-05-03T01:05:47.855Z,1029.52
2023-05-03T01:06:48.015Z,1029.52
2023-05-03T01:07:47.852Z,1029.52
2023-05-03T01:08:47.869Z,1029.51
2023-05-03T01:09:47.868Z,1029.52
2023-05-03T01:10:47.839Z,1029.56
2023-05-03T01:11:47.844Z,1029.49
2023-05-03T01:12:47.837Z,1029.53
2023-05-03T01:13:47.852Z,1029.55
2023-05-03T01:14:47.848Z,1029.55
2023-05-03T01:15:47.879Z,1029.56
2023-05-03T01:16:47.859Z,1029.56
2023-05-03T01:17:47.894Z,1029.56
2023-05-03T01:18:47.857Z,1029.57
2023-05-03T01:19:47.835Z,1029.57
2023-05-03T01:20:47.850Z,1029.56
2023-05-03T01:21:47.850Z,1029.62
2023-05-03T01:22:47.843Z,1029.54
2023-05-03T01:23:47.855Z,1029.56
2023-05-03T01:24:47.858Z,1029.55
2023-05-03T01:25:47.837Z,1029.57
2023-05-03T01:26:47.838Z,1029.59
2023-05-03T01:27:47.845Z,1029.56
2023-05-03T01:28:47.864Z,1029.56
2023-05-03T01:29:47.842Z,1029.55
2023-05-03T01:30:47.858Z,1029.53
2023-05-03T01:31:47.928Z,1029.56
2023-05-03T01:32:47.873Z,1029.56
2023-05-03T01:33:47.860Z,1029.62
2023-05-03T01:34:47.850Z,1029.58
2023-05-03T01:35:47.839Z,1029.58
2023-05-03T01:36:47.845Z,1029.53
2023-05-03T01:37:47.845Z,1029.55
2023-05-03T01:38:47.858Z,1029.53
2023-05-03T01:39:48.009Z,1029.46
2023-05-03T01:40:47.859Z,1029.51
2023-05-03T01:41:47.840Z,1029.46
2023-05-03T01:42:47.852Z,1029.49
2023-05-03T01:43:47.869Z,1029.49
2023-05-03T01:44:47.841Z,1029.48
2023-05-03T01:45:47.931Z,1029.46
2023-05-03T01:46:47.844Z,1029.47
2023-05-03T01:47:47.866Z,1029.46
2023-05-03T01:48:47.869Z,1029.52
2023-05-03T01:49:47.845Z,1029.47
2023-05-03T01:50:47.840Z,1029.51
2023-05-03T01:51:47.836Z,1029.48
2023-05-03T01:52:47.845Z,1029.46
2023-05-03T01:53:47.852Z,1029.49
2023-05-03T01:54:47.854Z,1029.45
2023-05-03T01:55:47.841Z,1029.47
2023-05-03T01:56:47.840Z,1029.45
2023-05-03T01:57:47.855Z,1029.48
2023-05-03T01:58:47.857Z,1029.5
2023-05-03T01:59:47.841Z,1029.46
2023-05-03T02:00:47.866Z,1029.48
2023-05-03T02:01:47.858Z,1029.46
2023-05-03T02:02:47.897Z,1029.46
2023-05-03T02:03:47.863Z,1029.45
2023-05-03T02:04:47.953Z,1029.45
2023-05-03T02:05:47.841Z,1029.43
2023-05-03T02:06:47.919Z,1029.42
2023-05-03T02:07:47.844Z,1029.42
2023-05-03T02:08:47.858Z,1029.39
2023-05-03T02:09:47.869Z,1029.44
2023-05-03T02:10:47.855Z,1029.43
2023-05-03T02:11:47.844Z,1029.39
2023-05-03T02:12:47.843Z,1029.43
2023-05-03T02:13:47.856Z,1029.45
2023-05-03T02:14:47.854Z,1029.39
2023-05-03T02:15:47.847Z,1029.44
2023-05-03T02:16:47.849Z,1029.45
2023-05-03T02:17:47.875Z,1029.45
2023-05-03T02:18:47.857Z,1029.44
2023-05-03T02:19:47.836Z,1029.44
2023-05-03T02:20:47.865Z,1029.5
2023-05-03T02:21:47.851Z,1029.48
2023-05-03T02:22:47.847Z,1029.44
2023-05-03T02:23:47.864Z,1029.46
2023-05-03T02:24:47.863Z,1029.46
2023-05-03T02:25:47.846Z,1029.45
2023-05-03T02:26:47.846Z,1029.45
2023-05-03T02:27:47.845Z,1029.49
2023-05-03T02:28:47.859Z,1029.46
2023-05-03T02:29:47.846Z,1029.47
2023-05-03T02:30:47.909Z,1029.48
2023-05-03T02:31:47.857Z,1029.5
2023-05-03T02:32:47.909Z,1029.49
2023-05-03T02:33:47.858Z,1029.48
2023-05-03T02:34:47.863Z,1029.48
2023-05-03T02:35:47.847Z,1029.5
2023-05-03T02:36:47.841Z,1029.54
2023-05-03T02:37:47.839Z,1029.52
2023-05-03T02:38:47.858Z,1029.56
2023-05-03T02:39:48.036Z,1029.61
2023-05-03T02:40:47.849Z,1029.57
2023-05-03T02:41:47.838Z,1029.54
2023-05-03T02:42:47.844Z,1029.55
2023-05-03T02:43:47.851Z,1029.52
2023-05-03T02:44:47.848Z,1029.53
2023-05-03T02:45:47.853Z,1029.54
2023-05-03T02:46:47.895Z,1029.54
2023-05-03T02:47:47.891Z,1029.55
2023-05-03T02:48:47.861Z,1029.54
2023-05-03T02:49:47.841Z,1029.5
2023-05-03T02:50:47.843Z,1029.49
2023-05-03T02:51:47.862Z,1029.48
2023-05-03T02:52:47.840Z,1029.47
2023-05-03T02:53:47.867Z,1029.48
2023-05-03T02:54:47.859Z,1029.49
2023-05-03T02:55:47.840Z,1029.51
2023-05-03T02:56:47.840Z,1029.51
2023-05-03T02:57:47.848Z,1029.46
2023-05-03T02:58:47.880Z,1029.5
2023-05-03T02:59:47.849Z,1029.44
2023-05-03T03:00:47.851Z,1029.45
2023-05-03T03:01:47.874Z,1029.48
2023-05-03T03:02:47.920Z,1029.46
2023-05-03T03:03:47.976Z,1029.48
2023-05-03T03:04:47.840Z,1029.49
2023-05-03T03:05:47.837Z,1029.49
2023-05-03T03:06:47.964Z,1029.49
2023-05-03T03:07:47.839Z,1029.49
2023-05-03T03:08:47.853Z,1029.5
2023-05-03T03:09:47.859Z,1029.49
2023-05-03T03:10:47.848Z,1029.49
2023-05-03T03:11:47.843Z,1029.49
2023-05-03T03:12:47.849Z,1029.5
2023-05-03T03:13:47.856Z,1029.53
2023-05-03T03:14:47.843Z,1029.52
2023-05-03T03:15:47.852Z,1029.54
2023-05-03T03:16:47.852Z,1029.58
2023-05-03T03:17:47.895Z,1029.62
2023-05-03T03:18:47.852Z,1029.67
2023-05-03T03:19:47.848Z,1029.63
2023-05-03T03:20:47.848Z,1029.61
2023-05-03T03:21:47.839Z,1029.67
2023-05-03T03:22:47.863Z,1029.62
2023-05-03T03:23:47.852Z,1029.63
2023-05-03T03:24:47.859Z,1029.64
2023-05-03T03:25:47.837Z,1029.63
2023-05-03T03:26:47.839Z,1029.66
2023-05-03T03:27:47.846Z,1029.63
2023-05-03T03:28:47.858Z,1029.7
2023-05-03T03:29:47.845Z,1029.7
2023-05-03T03:30:47.846Z,1029.71
2023-05-03T03:31:47.872Z,1029.75
2023-05-03T03:32:47.906Z,1029.76
2023-05-03T03:33:47.844Z,1029.8
2023-05-03T03:34:47.838Z,1029.74
2023-05-03T03:35:47.840Z,1029.76
2023-05-03T03:36:47.854Z,1029.76
2023-05-03T03:37:47.862Z,1029.77
2023-05-03T03:38:47.855Z,1029.82
2023-05-03T03:39:47.868Z,1029.84
2023-05-03T03:40:47.853Z,1029.85
2023-05-03T03:41:47.843Z,1029.89
2023-05-03T03:42:47.851Z,1029.88
2023-05-03T03:43:47.855Z,1029.93
2023-05-03T03:44:47.841Z,1029.92
2023-05-03T03:45:47.856Z,1029.95
2023-05-03T03:46:47.872Z,1029.95
2023-05-03T03:47:47.905Z,1029.96
2023-05-03T03:48:47.859Z,1029.94
2023-05-03T03:49:47.852Z,1029.9
2023-05-03T03:50:47.844Z,1029.94
2023-05-03T03:51:47.852Z,1029.91
2023-05-03T03:52:47.844Z,1029.87
2023-05-03T03:53:47.859Z,1029.89
2023-05-03T03:54:47.854Z,1029.92
2023-05-03T03:55:47.853Z,1029.94
2023-05-03T03:56:47.842Z,1029.92
2023-05-03T03:57:47.840Z,1029.93
2023-05-03T03:58:47.857Z,1029.94
2023-05-03T03:59:47.841Z,1030.03
2023-05-03T04:00:47.840Z,1030.08
2023-05-03T04:01:47.857Z,1030.11
2023-05-03T04:02:47.958Z,1030.1
2023-05-03T04:03:48.001Z,1030.1
2023-05-03T04:04:47.846Z,1030.06
2023-05-03T04:05:47.852Z,1030.1
2023-05-03T04:06:48.043Z,1030.09
2023-05-03T04:07:47.842Z,1030.09
2023-05-03T04:08:47.867Z,1030.09
2023-05-03T04:09:47.864Z,1030.11
2023-05-03T04:10:47.833Z,1030.14
2023-05-03T04:11:47.841Z,1030.15
2023-05-03T04:12:47.848Z,1030.13
2023-05-03T04:13:47.852Z,1030.13
2023-05-03T04:14:47.831Z,1030.14
2023-05-03T04:15:47.841Z,1030.12
2023-05-03T04:16:47.915Z,1030.14
2023-05-03T04:17:47.862Z,1030.2
2023-05-03T04:18:47.857Z,1030.16
2023-05-03T04:19:47.854Z,1030.19
2023-05-03T04:20:47.844Z,1030.16
2023-05-03T04:21:47.839Z,1030.18
2023-05-03T04:22:47.841Z,1030.15
2023-05-03T04:23:47.851Z,1030.16
2023-05-03T04:24:47.863Z,1030.16
2023-05-03T04:25:47.837Z,1030.17
2023-05-03T04:26:47.842Z,1030.18
2023-05-03T04:27:47.848Z,1030.2
2023-05-03T04:28:47.859Z,1030.21
2023-05-03T04:29:47.851Z,1030.21
2023-05-03T04:30:47.938Z,1030.23
2023-05-03T04:31:47.865Z,1030.27
2023-05-03T04:32:47.916Z,1030.27
2023-05-03T04:33:47.865Z,1030.26
2023-05-03T04:34:49.343Z,1030.23
2023-05-03T04:35:47.839Z,1030.28
2023-05-03T04:36:47.838Z,1030.29
2023-05-03T04:37:47.849Z,1030.34
2023-05-03T04:38:47.851Z,1030.36
2023-05-03T04:39:47.860Z,1030.33
2023-05-03T04:40:47.854Z,1030.31
2023-05-03T04:41:47.846Z,1030.34
2023-05-03T04:42:47.849Z,1030.34
2023-05-03T04:43:47.860Z,1030.35
2023-05-03T04:44:47.857Z,1030.43
2023-05-03T04:45:48.062Z,1030.4
2023-05-03T04:46:49.519Z,1030.42
2023-05-03T04:47:47.903Z,1030.36
2023-05-03T04:48:47.881Z,1030.42
2023-05-03T04:49:47.836Z,1030.41
2023-05-03T04:50:47.852Z,1030.44
2023-05-03T04:51:47.878Z,1030.4
2023-05-03T04:52:47.872Z,1030.44
2023-05-03T04:53:47.861Z,1030.45
2023-05-03T04:54:47.874Z,1030.48
2023-05-03T04:55:47.843Z,1030.44
2023-05-03T04:56:47.865Z,1030.5
2023-05-03T04:57:47.855Z,1030.49
2023-05-03T04:58:47.873Z,1030.5
2023-05-03T04:59:47.854Z,1030.47
2023-05-03T05:00:47.854Z,1030.47
2023-05-03T05:01:47.888Z,1030.48
2023-05-03T05:02:47.951Z,1030.49
2023-05-03T05:03:47.991Z,1030.51
2023-05-03T05:04:47.839Z,1030.55
2023-05-03T05:05:47.851Z,1030.54
2023-05-03T05:06:47.947Z,1030.55
2023-05-03T05:07:47.874Z,1030.55
2023-05-03T05:08:47.848Z,1030.52
2023-05-03T05:09:47.858Z,1030.58
2023-05-03T05:10:47.862Z,1030.56
2023-05-03T05:11:47.840Z,1030.6
2023-05-03T05:12:47.840Z,1030.62
2023-05-03T05:13:47.852Z,1030.62
2023-05-03T05:14:47.849Z,1030.64
2023-05-03T05:15:47.832Z,1030.63
2023-05-03T05:16:47.922Z,1030.62
2023-05-03T05:17:48.041Z,1030.64
2023-05-03T05:18:48.625Z,1030.67
2023-05-03T05:19:47.838Z,1030.64
2023-05-03T05:20:47.853Z,1030.66
2023-05-03T05:21:47.838Z,1030.65
2023-05-03T05:22:47.832Z,1030.68
2023-05-03T05:23:47.868Z,1030.69
2023-05-03T05:24:47.852Z,1030.71
2023-05-03T05:25:47.845Z,1030.72
2023-05-03T05:26:47.842Z,1030.71
2023-05-03T05:27:47.839Z,1030.7
2023-05-03T05:28:47.849Z,1030.69
2023-05-03T05:29:47.839Z,1030.69
2023-05-03T05:30:47.840Z,1030.67
2023-05-03T05:31:47.867Z,1030.7
2023-05-03T05:32:47.867Z,1030.7
2023-05-03T05:33:47.855Z,1030.68
2023-05-03T05:34:47.839Z,1030.7
2023-05-03T05:35:47.843Z,1030.68
2023-05-03T05:36:47.833Z,1030.71
2023-05-03T05:37:47.862Z,1030.72
2023-05-03T05:38:47.846Z,1030.71
2023-05-03T05:39:47.890Z,1030.74
2023-05-03T05:40:47.838Z,1030.73
2023-05-03T05:41:47.832Z,1030.74
2023-05-03T05:42:47.837Z,1030.74
2023-05-03T05:43:47.853Z,1030.72
2023-05-03T05:44:47.847Z,1030.74
2023-05-03T05:45:47.845Z,1030.75
2023-05-03T05:46:47.864Z,1030.77
2023-05-03T05:47:47.903Z,1030.74
2023-05-03T05:48:47.847Z,1030.78
2023-05-03T05:49:47.844Z,1030.83
2023-05-03T05:50:47.846Z,1030.83
2023-05-03T05:51:47.841Z,1030.85
2023-05-03T05:52:47.839Z,1030.84
2023-05-03T05:53:47.871Z,1030.85
2023-05-03T05:54:47.863Z,1030.86
2023-05-03T05:55:47.843Z,1030.88
2023-05-03T05:56:47.839Z,1030.85
2023-05-03T05:57:47.850Z,1030.9
2023-05-03T05:58:47.853Z,1030.82
2023-05-03T05:59:47.874Z,1030.87
2023-05-03T06:00:47.838Z,1030.82
2023-05-03T06:01:47.861Z,1030.85
2023-05-03T06:02:48.004Z,1030.84
2023-05-03T06:03:47.860Z,1030.83
2023-05-03T06:04:47.879Z,1030.81
2023-05-03T06:05:47.881Z,1030.81
2023-05-03T06:06:47.969Z,1030.79
2023-05-03T06:07:47.849Z,1030.79
2023-05-03T06:08:47.854Z,1030.82
2023-05-03T06:09:47.864Z,1030.88
2023-05-03T06:10:47.842Z,1030.86
2023-05-03T06:11:47.855Z,1030.86
2023-05-03T06:12:47.845Z,1030.86
2023-05-03T06:13:47.857Z,1030.87
2023-05-03T06:15:01.502Z,1030.88
2023-05-03T06:15:47.850Z,1030.88
2023-05-03T06:16:47.900Z,1030.91
2023-05-03T06:17:47.946Z,1030.88
2023-05-03T06:18:47.865Z,1030.87
2023-05-03T06:19:47.850Z,1030.91
2023-05-03T06:20:47.841Z,1030.88
2023-05-03T06:21:47.849Z,1030.89
2023-05-03T06:22:47.849Z,1030.91
2023-05-03T06:23:47.862Z,1030.91
2023-05-03T06:24:47.861Z,1030.94
2023-05-03T06:25:47.865Z,1030.91
2023-05-03T06:26:47.847Z,1030.95
2023-05-03T06:27:47.841Z,1030.95
2023-05-03T06:28:47.865Z,1030.94
2023-05-03T06:29:47.841Z,1030.93
2023-05-03T06:30:47.884Z,1030.94
2023-05-03T06:31:47.849Z,1030.92
2023-05-03T06:32:47.903Z,1030.93
2023-05-03T06:33:47.858Z,1030.95
2023-05-03T06:34:47.848Z,1030.93
2023-05-03T06:35:47.844Z,1030.9
2023-05-03T06:36:47.849Z,1030.91
2023-05-03T06:37:47.850Z,1030.94
2023-05-03T06:38:47.847Z,1030.91
2023-05-03T06:39:47.866Z,1030.91
2023-05-03T06:40:47.834Z,1030.88
2023-05-03T06:41:47.843Z,1030.92
2023-05-03T06:42:47.840Z,1030.92
2023-05-03T06:43:47.845Z,1030.98
2023-05-03T06:44:47.840Z,1030.95
2023-05-03T06:45:47.844Z,1030.96
2023-05-03T06:46:47.904Z,1030.97
2023-05-03T06:47:47.880Z,1030.94
2023-05-03T06:48:47.896Z,1030.93
2023-05-03T06:49:47.843Z,1030.92
2023-05-03T06:50:47.842Z,1030.96
2023-05-03T06:51:47.846Z,1030.91
2023-05-03T06:52:47.856Z,1030.92
2023-05-03T06:53:47.851Z,1030.94
2023-05-03T06:54:47.862Z,1030.89
2023-05-03T06:55:47.843Z,1030.88
2023-05-03T06:56:47.838Z,1030.91
2023-05-03T06:57:47.840Z,1030.87
2023-05-03T06:58:47.858Z,1030.91
2023-05-03T06:59:47.849Z,1030.93
2023-05-03T07:00:47.849Z,1030.93
2023-05-03T07:01:47.858Z,1030.92
2023-05-03T07:02:47.954Z,1030.89
2023-05-03T07:03:47.983Z,1030.89
2023-05-03T07:04:47.849Z,1030.93
2023-05-03T07:05:47.848Z,1030.92
2023-05-03T07:06:56.087Z,1030.94
2023-05-03T07:07:47.844Z,1030.94
2023-05-03T07:08:47.886Z,1030.89
2023-05-03T07:09:47.851Z,1030.95
2023-05-03T07:10:47.861Z,1030.94
2023-05-03T07:11:47.839Z,1030.89
2023-05-03T07:12:47.841Z,1030.85
2023-05-03T07:13:47.856Z,1030.88
2023-05-03T07:14:47.840Z,1030.87
2023-05-03T07:15:47.868Z,1030.86
2023-05-03T07:16:47.901Z,1030.9
2023-05-03T07:17:47.889Z,1030.88
2023-05-03T07:18:47.844Z,1030.87
2023-05-03T07:19:47.844Z,1030.86
2023-05-03T07:20:47.841Z,1030.75
2023-05-03T07:21:47.843Z,1030.8
2023-05-03T07:22:47.843Z,1030.78
2023-05-03T07:23:47.858Z,1030.78
2023-05-03T07:24:47.890Z,1030.78
2023-05-03T07:25:47.890Z,1030.75
2023-05-03T07:26:49.008Z,1030.82
2023-05-03T07:27:47.841Z,1030.77
2023-05-03T07:28:47.852Z,1030.77
2023-05-03T07:29:47.846Z,1030.8
2023-05-03T07:30:47.850Z,1030.75
2023-05-03T07:31:47.851Z,1030.72
2023-05-03T07:32:47.910Z,1030.74
2023-05-03T07:33:47.960Z,1030.74
2023-05-03T07:34:47.833Z,1030.7
2023-05-03T07:35:47.832Z,1030.71
2023-05-03T07:36:47.839Z,1030.68
2023-05-03T07:37:47.846Z,1030.69
2023-05-03T07:38:47.850Z,1030.71
2023-05-03T07:39:47.857Z,1030.74
2023-05-03T07:40:47.850Z,1030.78
2023-05-03T07:41:47.838Z,1030.73
2023-05-03T07:42:47.845Z,1030.74
2023-05-03T07:43:47.850Z,1030.75
2023-05-03T07:44:47.837Z,1030.74
2023-05-03T07:45:47.866Z,1030.75
2023-05-03T07:46:47.833Z,1030.8
2023-05-03T07:47:47.894Z,1030.74
2023-05-03T07:48:47.843Z,1030.75
2023-05-03T07:49:47.844Z,1030.77
2023-05-03T07:50:47.840Z,1030.77
2023-05-03T07:51:47.829Z,1030.74
2023-05-03T07:52:47.826Z,1030.72
2023-05-03T07:53:47.835Z,1030.74
2023-05-03T07:54:47.854Z,1030.75
2023-05-03T07:55:47.844Z,1030.77
2023-05-03T07:56:47.829Z,1030.75
2023-05-03T07:57:47.850Z,1030.71
2023-05-03T07:58:50.959Z,1030.73
2023-05-03T07:59:47.839Z,1030.69
2023-05-03T08:00:47.825Z,1030.7
2023-05-03T08:01:47.839Z,1030.7
2023-05-03T08:02:47.914Z,1030.72
2023-05-03T08:03:48.059Z,1030.69
2023-05-03T08:04:48.002Z,1030.72
2023-05-03T08:05:47.979Z,1030.65
2023-05-03T08:06:47.950Z,1030.67
2023-05-03T08:07:47.833Z,1030.67
2023-05-03T08:08:47.847Z,1030.66
2023-05-03T08:09:47.851Z,1030.69
2023-05-03T08:10:47.844Z,1030.7
2023-05-03T08:11:47.839Z,1030.72
2023-05-03T08:12:47.827Z,1030.73
2023-05-03T08:13:47.848Z,1030.7
2023-05-03T08:14:47.853Z,1030.75
2023-05-03T08:15:47.887Z,1030.72
2023-05-03T08:16:47.838Z,1030.77
2023-05-03T08:17:47.894Z,1030.75
2023-05-03T08:18:47.847Z,1030.72
2023-05-03T08:19:47.831Z,1030.75
2023-05-03T08:20:47.841Z,1030.78
2023-05-03T08:21:47.838Z,1030.78
2023-05-03T08:22:47.829Z,1030.75
2023-05-03T08:23:47.849Z,1030.77
2023-05-03T08:24:47.840Z,1030.77
2023-05-03T08:25:47.851Z,1030.74
2023-05-03T08:26:47.829Z,1030.79
2023-05-03T08:27:47.842Z,1030.78
2023-05-03T08:28:47.882Z,1030.7
2023-05-03T08:29:47.839Z,1030.74
2023-05-03T08:30:47.837Z,1030.68
2023-05-03T08:31:47.902Z,1030.67
2023-05-03T08:32:47.905Z,1030.65
2023-05-03T08:33:47.848Z,1030.62
2023-05-03T08:34:47.839Z,1030.61
2023-05-03T08:35:49.274Z,1030.61
2023-05-03T08:36:47.837Z,1030.65
2023-05-03T08:37:47.843Z,1030.61
2023-05-03T08:38:47.860Z,1030.6
2023-05-03T08:39:47.848Z,1030.6
2023-05-03T08:40:47.839Z,1030.59
2023-05-03T08:41:47.832Z,1030.67
2023-05-03T08:42:47.833Z,1030.64
2023-05-03T08:43:47.862Z,1030.67
2023-05-03T08:44:47.839Z,1030.61
2023-05-03T08:45:47.834Z,1030.57
2023-05-03T08:46:47.890Z,1030.62
2023-05-03T08:47:47.839Z,1030.64
2023-05-03T08:48:47.852Z,1030.66
2023-05-03T08:49:47.836Z,1030.64
2023-05-03T08:50:47.842Z,1030.65
2023-05-03T08:51:47.831Z,1030.63
2023-05-03T08:52:47.846Z,1030.65
2023-05-03T08:53:47.846Z,1030.65
2023-05-03T08:54:47.865Z,1030.68
2023-05-03T08:55:47.835Z,1030.62
2023-05-03T08:56:47.847Z,1030.65
2023-05-03T08:57:47.843Z,1030.63
2023-05-03T08:58:47.940Z,1030.62
2023-05-03T08:59:47.847Z,1030.6
2023-05-03T09:00:47.841Z,1030.58
2023-05-03T09:01:47.912Z,1030.57
2023-05-03T09:02:47.923Z,1030.55
2023-05-03T09:03:49.387Z,1030.59
2023-05-03T09:04:47.849Z,1030.57
2023-05-03T09:05:47.881Z,1030.49
2023-05-03T09:06:47.953Z,1030.55
2023-05-03T09:07:47.838Z,1030.55
2023-05-03T09:08:47.863Z,1030.5
2023-05-03T09:09:47.887Z,1030.54
2023-05-03T09:10:47.835Z,1030.55
2023-05-03T09:11:47.842Z,1030.57
2023-05-03T09:12:47.832Z,1030.55
2023-05-03T09:13:47.852Z,1030.56
2023-05-03T09:14:47.844Z,1030.61
2023-05-03T09:15:47.837Z,1030.62
2023-05-03T09:16:47.943Z,1030.59
2023-05-03T09:17:47.879Z,1030.59
2023-05-03T09:18:53.044Z,1030.6
2023-05-03T09:19:52.119Z,1030.6
2023-05-03T09:20:53.049Z,1030.67
2023-05-03T09:21:52.115Z,1030.64
2023-05-03T09:22:52.117Z,1030.65
2023-05-03T09:23:52.131Z,1030.6
2023-05-03T09:24:52.123Z,1030.6
2023-05-03T09:25:52.115Z,1030.65
2023-05-03T09:26:52.131Z,1030.66
2023-05-03T09:27:52.163Z,1030.6
2023-05-03T09:28:52.125Z,1030.58
2023-05-03T09:29:52.126Z,1030.59
2023-05-03T09:30:52.114Z,1030.58
2023-05-03T09:31:52.160Z,1030.59
2023-05-03T09:32:52.169Z,1030.58
2023-05-03T09:33:52.136Z,1030.55
2023-05-03T09:34:52.116Z,1030.56
2023-05-03T09:35:52.104Z,1030.54
2023-05-03T09:36:52.101Z,1030.56
2023-05-03T09:37:52.114Z,1030.51
2023-05-03T09:38:52.131Z,1030.55
2023-05-03T09:39:52.122Z,1030.57
2023-05-03T09:40:52.110Z,1030.62
2023-05-03T09:41:52.115Z,1030.57
2023-05-03T09:42:52.117Z,1030.64
2023-05-03T09:43:52.137Z,1030.63
2023-05-03T09:44:52.124Z,1030.62
2023-05-03T09:45:52.129Z,1030.65
2023-05-03T09:46:52.121Z,1030.65
2023-05-03T09:47:52.158Z,1030.65
2023-05-03T09:48:52.092Z,1030.65
2023-05-03T09:49:52.122Z,1030.67
2023-05-03T09:50:52.114Z,1030.63
2023-05-03T09:51:52.119Z,1030.6
2023-05-03T09:52:52.104Z,1030.6
2023-05-03T09:53:52.115Z,1030.57
2023-05-03T09:54:52.142Z,1030.5
2023-05-03T09:55:52.121Z,1030.48
2023-05-03T09:56:52.113Z,1030.47
2023-05-03T09:57:52.114Z,1030.54
2023-05-03T09:58:52.118Z,1030.46
2023-05-03T09:59:52.121Z,1030.47
2023-05-03T10:00:52.409Z,1030.41
2023-05-03T10:01:52.161Z,1030.41
2023-05-03T10:02:52.147Z,1030.45
2023-05-03T10:03:52.149Z,1030.4
2023-05-03T10:04:52.120Z,1030.41
2023-05-03T10:05:52.107Z,1030.34
2023-05-03T10:06:52.178Z,1030.29
2023-05-03T10:07:52.118Z,1030.29
2023-05-03T10:08:52.109Z,1030.29
2023-05-03T10:09:52.130Z,1030.23
2023-05-03T10:10:52.097Z,1030.22
2023-05-03T10:11:52.148Z,1030.28
2023-05-03T10:12:52.106Z,1030.29
2023-05-03T10:13:52.104Z,1030.26
2023-05-03T10:14:52.109Z,1030.25
2023-05-03T10:15:52.147Z,1030.25
2023-05-03T10:16:52.116Z,1030.21
2023-05-03T10:17:52.148Z,1030.23
2023-05-03T10:18:52.121Z,1030.17
2023-05-03T10:19:52.108Z,1030.18
2023-05-03T10:20:52.129Z,1030.11
2023-05-03T10:21:52.116Z,1030.12
2023-05-03T10:22:52.106Z,1030.15
2023-05-03T10:23:52.118Z,1030.19
2023-05-03T10:24:52.132Z,1030.19
2023-05-03T10:25:52.100Z,1030.2
2023-05-03T10:26:52.103Z,1030.19
2023-05-03T10:27:52.106Z,1030.18
2023-05-03T10:28:52.115Z,1030.15
2023-05-03T10:29:52.149Z,1030.13
2023-05-03T10:30:52.102Z,1030.15
2023-05-03T10:31:52.160Z,1030.18
2023-05-03T10:32:52.155Z,1030.13
2023-05-03T10:33:52.118Z,1030.15
2023-05-03T10:34:52.088Z,1030.05
2023-05-03T10:35:52.096Z,1030.08
2023-05-03T10:36:52.106Z,1029.97
2023-05-03T10:37:52.112Z,1030.01
2023-05-03T10:38:52.118Z,1029.95
2023-05-03T10:39:52.099Z,1029.9
2023-05-03T10:40:52.139Z,1029.97
2023-05-03T10:41:52.095Z,1029.95
2023-05-03T10:42:52.095Z,1029.93
2023-05-03T10:43:52.130Z,1029.99
2023-05-03T10:44:52.101Z,1029.95
2023-05-03T10:45:52.125Z,1029.94
2023-05-03T10:46:52.186Z,1029.98
2023-05-03T10:47:52.146Z,1029.95
2023-05-03T10:48:52.114Z,1029.95
2023-05-03T10:49:52.096Z,1029.96
2023-05-03T10:50:52.098Z,1029.9
2023-05-03T10:51:52.090Z,1029.96
2023-05-03T10:52:52.114Z,1029.91
2023-05-03T10:53:52.119Z,1029.95
2023-05-03T10:54:52.107Z,1029.92
2023-05-03T10:55:52.096Z,1029.86
2023-05-03T10:56:52.112Z,1029.87
2023-05-03T10:57:52.098Z,1029.92
2023-05-03T10:58:52.111Z,1029.9
2023-05-03T10:59:52.098Z,1029.87
2023-05-03T11:00:52.103Z,1029.88
2023-05-03T11:01:52.126Z,1029.92
2023-05-03T11:02:52.292Z,1029.9
2023-05-03T11:03:52.123Z,1029.95
2023-05-03T11:04:52.130Z,1030
2023-05-03T11:05:52.101Z,1029.96
2023-05-03T11:06:52.322Z,1029.95
2023-05-03T11:07:52.093Z,1029.95
2023-05-03T11:08:52.109Z,1030.03
2023-05-03T11:09:52.106Z,1030.03
2023-05-03T11:10:52.083Z,1030.02
2023-05-03T11:11:52.091Z,1030.04
2023-05-03T11:12:52.096Z,1030.03
2023-05-03T11:13:52.145Z,1030.06
2023-05-03T11:14:52.102Z,1030
2023-05-03T11:15:52.100Z,1030.08
2023-05-03T11:16:52.178Z,1030.06
2023-05-03T11:17:52.113Z,1030.03
2023-05-03T11:18:52.119Z,1030.06
2023-05-03T11:19:52.093Z,1030.04
2023-05-03T11:20:52.080Z,1030.02
2023-05-03T11:21:52.104Z,1029.97
2023-05-03T11:22:52.109Z,1029.96
2023-05-03T11:23:52.116Z,1029.99
2023-05-03T11:24:52.118Z,1030.04
2023-05-03T11:25:52.094Z,1030.04
2023-05-03T11:26:52.092Z,1029.96
2023-05-03T11:27:52.089Z,1030
2023-05-03T11:28:52.103Z,1030.03
2023-05-03T11:29:52.086Z,1029.97
2023-05-03T11:30:52.088Z,1029.96
2023-05-03T11:31:52.156Z,1029.99
2023-05-03T11:32:52.120Z,1029.97
2023-05-03T11:33:52.100Z,1029.94
2023-05-03T11:34:52.108Z,1029.98
2023-05-03T11:35:52.086Z,1029.96
2023-05-03T11:36:52.101Z,1029.91
2023-05-03T11:37:52.092Z,1029.91
2023-05-03T11:38:52.110Z,1029.9
2023-05-03T11:39:52.105Z,1029.91
2023-05-03T11:40:52.098Z,1029.94
2023-05-03T11:41:52.108Z,1029.95
2023-05-03T11:42:52.119Z,1029.97
2023-05-03T11:44:03.919Z,1029.98
2023-05-03T11:44:52.094Z,1029.95
2023-05-03T11:45:52.156Z,1029.94
2023-05-03T11:46:52.122Z,1029.93
2023-05-03T11:47:52.142Z,1029.92
2023-05-03T11:48:52.122Z,1029.93
2023-05-03T11:49:52.094Z,1029.94
2023-05-03T11:50:52.075Z,1029.9
2023-05-03T11:51:54.686Z,1029.9
2023-05-03T11:52:52.086Z,1029.89
2023-05-03T11:53:52.102Z,1029.89
2023-05-03T11:54:52.128Z,1029.87
2023-05-03T11:55:52.109Z,1029.87
2023-05-03T11:56:52.983Z,1029.86
2023-05-03T11:57:52.101Z,1029.86
2023-05-03T11:58:52.110Z,1029.86
2023-05-03T11:59:52.123Z,1029.9
2023-05-03T12:00:52.102Z,1029.87
2023-05-03T12:01:52.106Z,1029.86
2023-05-03T12:02:52.167Z,1029.86
2023-05-03T12:03:52.223Z,1029.84
2023-05-03T12:04:52.610Z,1029.85
2023-05-03T12:05:52.462Z,1029.92
2023-05-03T12:06:52.854Z,1029.87
2023-05-03T12:07:52.469Z,1029.87